RPLB METAR and TAF | Updated Today

RPLB METAR

Subic Bay International Airport

Observation time: 7 min. ago

RPLB 052000Z 04004KT 360V070 9999 FEW020 BKN080 25/20 Q1012 NOSIG RMK A2988

Need help? Read our tutorial on how to read METARs or read the parsed version below.

Subic Bay International Airport (RPLB) METAR

  • Weather conditions on Sun, 05 Feb 2023 20:00:00 +0000 (7 min. ago):
  • Present conditions: Dry
  • Clouds: A few at 610 meters; broken sky at 2438 meters
  • Visibility: Greater than 10 km
  • Wind: 40 degrees at 4 knots
  • Temperature: 25 celsius
  • Dew point: 20 celsius
  • Pressure: 1012 millibars
  • Remarks: A2988


Useful to know...

RPLB TAF

Subic Bay International Airport

TAF RPLB 051700Z 0518/0618 05005KT 9999 FEW020 BKN080 TX32/0606Z TN22/0521Z TEMPO 0518/0524 06008KT
Observation time: 3:07 hr. ago
Need help? Read our tutorial on how to read TAFs or read the parsed version below.

Parsed version of TAF for Subic Bay International Airport (RPLB)

  • From 05 February at 18:00 UTC, to day 06 of the month at 18:00 UTC
  • Clouds: A few at 610 meters; broken sky at 2438 meters
  • Visibility: Greater than 10 km
  • Wind: 50 degrees at 5
  • Expected to arise temporarily, from 05 February at 18:00 UTC, to day 05 of the month at 24:00 UTC
  • Wind: 60 degrees at 8